Baltimore, Maryland
Traffic Map
Current Weather Conditions
Baltimore, Maryland
Broken Clouds
Broken Clouds
53°
Feels Like: 53°
Wind Chill: 53° Ceiling: 8000
Heat Index: 53° Visibility: 10mi
Dew Point: 38° Wind: 6mph
Humidity: 57% Direction: 160° (SSE)
Pressure: 30.16in Gusts: 0mph
Raw Report DataKBWI 211754Z 16005KT 10SM SCT047 BKN080 BKN250 12/03 A3016 RMK AO2 SLP214 T01170033 10117 20017 58019
Traffic Incident Summary
Active as of:
Severity:
Category:
InformationThere was an issue retrieving the traffic information for this location. Please try a different location or try again shortly.
Advertisements